createdAt,value
2017-05-27T00:02:12.000Z,24.97
2017-05-27T00:12:12.000Z,24.93
2017-05-27T00:22:12.000Z,24.89
2017-05-27T00:32:12.000Z,24.85
2017-05-27T00:42:12.000Z,24.82
2017-05-27T00:52:12.000Z,24.8
2017-05-27T01:02:12.000Z,24.76
2017-05-27T01:12:12.000Z,24.73
2017-05-27T01:22:12.000Z,24.68
2017-05-27T01:32:12.000Z,24.66
2017-05-27T01:42:12.000Z,24.62
2017-05-27T01:52:12.000Z,24.59
2017-05-27T02:02:13.000Z,24.55
2017-05-27T02:12:13.000Z,24.52
2017-05-27T02:22:13.000Z,24.49
2017-05-27T02:32:13.000Z,24.45
2017-05-27T02:42:13.000Z,24.41
2017-05-27T02:52:13.000Z,24.38
2017-05-27T03:02:13.000Z,24.34
2017-05-27T03:12:13.000Z,24.31
2017-05-27T03:22:13.000Z,24.29
2017-05-27T03:32:13.000Z,24.26
2017-05-27T03:42:13.000Z,24.23
2017-05-27T03:52:13.000Z,24.21
2017-05-27T04:02:13.000Z,24.18
2017-05-27T04:12:13.000Z,24.16
2017-05-27T04:22:13.000Z,24.14
2017-05-27T04:32:13.000Z,24.13
2017-05-27T04:42:13.000Z,24.17
2017-05-27T04:52:13.000Z,24.22
2017-05-27T05:02:13.000Z,24.25
2017-05-27T05:12:13.000Z,24.27
2017-05-27T05:22:13.000Z,24.31
2017-05-27T05:32:13.000Z,24.35
2017-05-27T05:42:13.000Z,24.37
2017-05-27T05:52:13.000Z,24.47
2017-05-27T06:02:13.000Z,24.52
2017-05-27T06:12:13.000Z,24.56
2017-05-27T06:22:13.000Z,24.61
2017-05-27T06:32:13.000Z,24.69
2017-05-27T06:42:13.000Z,24.7
2017-05-27T06:52:13.000Z,24.74
2017-05-27T07:02:13.000Z,24.85
2017-05-27T07:12:13.000Z,24.99
2017-05-27T07:22:13.000Z,25.06
2017-05-27T07:32:13.000Z,25.15
2017-05-27T07:42:13.000Z,25.32
2017-05-27T07:52:13.000Z,25.48
2017-05-27T08:02:13.000Z,25.63
2017-05-27T08:12:13.000Z,25.75
2017-05-27T08:22:13.000Z,25.89
2017-05-27T08:32:13.000Z,25.97
2017-05-27T08:42:13.000Z,26.05
2017-05-27T08:52:13.000Z,26.18
2017-05-27T09:02:13.000Z,26.25
2017-05-27T09:12:13.000Z,26.37
2017-05-27T09:22:13.000Z,26.58
2017-05-27T09:32:14.000Z,26.6
2017-05-27T09:42:13.000Z,26.72
2017-05-27T09:52:13.000Z,26.84
2017-05-27T10:02:13.000Z,27.03
2017-05-27T10:12:13.000Z,27.13
2017-05-27T10:22:14.000Z,27.16
2017-05-27T10:32:14.000Z,27.27
2017-05-27T10:42:14.000Z,27.39
2017-05-27T10:52:14.000Z,27.45
2017-05-27T11:02:14.000Z,27.62
2017-05-27T11:12:14.000Z,27.68
2017-05-27T11:22:14.000Z,27.77
2017-05-27T11:32:14.000Z,27.9
2017-05-27T11:42:14.000Z,27.91
2017-05-27T11:52:14.000Z,28.02
2017-05-27T12:02:14.000Z,28.09
2017-05-27T12:12:14.000Z,28.13
2017-05-27T12:22:14.000Z,28.18
2017-05-27T12:32:14.000Z,28.26
2017-05-27T12:42:14.000Z,28.28
2017-05-27T12:52:14.000Z,28.4
2017-05-27T13:02:14.000Z,28.37
2017-05-27T13:12:14.000Z,28.47
2017-05-27T13:22:14.000Z,28.42
2017-05-27T13:32:14.000Z,28.46
2017-05-27T13:42:14.000Z,28.48
2017-05-27T13:52:14.000Z,28.49
2017-05-27T14:02:14.000Z,28.54
2017-05-27T14:12:14.000Z,28.49
2017-05-27T14:22:14.000Z,28.44
2017-05-27T14:32:14.000Z,28.45
2017-05-27T14:42:14.000Z,28.41
2017-05-27T14:52:14.000Z,28.4
2017-05-27T15:02:14.000Z,28.37
2017-05-27T15:12:14.000Z,28.34
2017-05-27T15:22:14.000Z,28.35
2017-05-27T15:32:14.000Z,28.31
2017-05-27T15:42:15.000Z,28.34
2017-05-27T15:52:14.000Z,28.33
2017-05-27T16:02:14.000Z,28.3
2017-05-27T16:12:15.000Z,28.31
2017-05-27T16:22:15.000Z,28.29
2017-05-27T16:32:14.000Z,28.29
2017-05-27T16:42:14.000Z,28.32
2017-05-27T16:52:14.000Z,28.33
2017-05-27T17:02:14.000Z,28.33
2017-05-27T17:12:14.000Z,28.36
2017-05-27T17:22:14.000Z,28.38
2017-05-27T17:32:14.000Z,28.42
2017-05-27T17:42:14.000Z,28.4
2017-05-27T17:52:14.000Z,28.41
2017-05-27T18:02:14.000Z,28.4
2017-05-27T18:12:15.000Z,28.36
2017-05-27T18:22:16.000Z,28.29
2017-05-27T18:32:15.000Z,28.19
2017-05-27T18:42:15.000Z,28.13
2017-05-27T18:52:15.000Z,28.06
2017-05-27T19:02:15.000Z,28.01
2017-05-27T19:12:15.000Z,27.94
2017-05-27T19:22:15.000Z,27.87
2017-05-27T19:32:15.000Z,27.81
2017-05-27T19:42:15.000Z,27.75
2017-05-27T19:52:15.000Z,27.7
2017-05-27T20:02:15.000Z,27.68
2017-05-27T20:12:15.000Z,27.62
2017-05-27T20:22:15.000Z,27.58
2017-05-27T20:32:15.000Z,27.55
2017-05-27T20:42:15.000Z,27.47
2017-05-27T20:52:15.000Z,27.41
2017-05-27T21:02:15.000Z,27.39
2017-05-27T21:12:15.000Z,27.36
2017-05-27T21:22:18.000Z,27.34
2017-05-27T21:32:15.000Z,27.29
2017-05-27T21:42:15.000Z,27.25
2017-05-27T21:52:15.000Z,27.21
2017-05-27T22:02:15.000Z,27.18
2017-05-27T22:12:15.000Z,27.12
2017-05-27T22:22:15.000Z,27.09
2017-05-27T22:42:15.000Z,27.02
2017-05-27T22:52:15.000Z,27
2017-05-27T23:02:15.000Z,26.98
2017-05-27T23:12:15.000Z,26.93
2017-05-27T23:22:16.000Z,26.88
2017-05-27T23:32:15.000Z,26.85
2017-05-27T23:42:15.000Z,26.81
2017-05-27T23:52:15.000Z,26.75
